sensor_id;sensor_type;location;lat;lon;timestamp;P1;durP1;ratioP1;P2;durP2;ratioP2
5285;SDS011;2665;53.112;7.358;2023-02-19T00:01:15;13.37;;;7.70;;
5285;SDS011;2665;53.112;7.358;2023-02-19T00:03:42;15.40;;;8.90;;
5285;SDS011;2665;53.112;7.358;2023-02-19T00:06:12;15.27;;;8.10;;
5285;SDS011;2665;53.112;7.358;2023-02-19T00:08:38;13.57;;;7.37;;
5285;SDS011;2665;53.112;7.358;2023-02-19T00:11:05;13.43;;;7.57;;
5285;SDS011;2665;53.112;7.358;2023-02-19T00:13:36;13.20;;;8.07;;
5285;SDS011;2665;53.112;7.358;2023-02-19T00:16:07;15.17;;;7.63;;
5285;SDS011;2665;53.112;7.358;2023-02-19T00:18:34;15.30;;;8.33;;
5285;SDS011;2665;53.112;7.358;2023-02-19T00:21:00;26.93;;;9.47;;
5285;SDS011;2665;53.112;7.358;2023-02-19T00:23:26;15.63;;;8.77;;
5285;SDS011;2665;53.112;7.358;2023-02-19T00:25:52;12.27;;;8.20;;
5285;SDS011;2665;53.112;7.358;2023-02-19T00:28:18;14.17;;;8.60;;
5285;SDS011;2665;53.112;7.358;2023-02-19T00:30:44;12.90;;;7.77;;
5285;SDS011;2665;53.112;7.358;2023-02-19T00:33:09;16.67;;;7.50;;
5285;SDS011;2665;53.112;7.358;2023-02-19T00:35:35;14.67;;;7.70;;
5285;SDS011;2665;53.112;7.358;2023-02-19T00:38:01;11.73;;;8.03;;
5285;SDS011;2665;53.112;7.358;2023-02-19T00:40:27;12.13;;;7.00;;
5285;SDS011;2665;53.112;7.358;2023-02-19T00:42:53;13.30;;;7.17;;
5285;SDS011;2665;53.112;7.358;2023-02-19T00:45:18;13.70;;;7.37;;
5285;SDS011;2665;53.112;7.358;2023-02-19T00:47:44;17.30;;;7.57;;
5285;SDS011;2665;53.112;7.358;2023-02-19T00:50:09;15.10;;;7.27;;
5285;SDS011;2665;53.112;7.358;2023-02-19T00:52:35;12.80;;;6.50;;
5285;SDS011;2665;53.112;7.358;2023-02-19T00:55:01;10.67;;;6.40;;
5285;SDS011;2665;53.112;7.358;2023-02-19T00:57:27;12.20;;;7.27;;
5285;SDS011;2665;53.112;7.358;2023-02-19T00:59:52;6.67;;;3.47;;
5285;SDS011;2665;53.112;7.358;2023-02-19T01:02:18;3.10;;;1.97;;
5285;SDS011;2665;53.112;7.358;2023-02-19T01:04:43;2.67;;;1.63;;
5285;SDS011;2665;53.112;7.358;2023-02-19T01:07:09;3.30;;;1.93;;
5285;SDS011;2665;53.112;7.358;2023-02-19T01:09:35;4.43;;;2.30;;
5285;SDS011;2665;53.112;7.358;2023-02-19T01:12:02;3.37;;;1.50;;
5285;SDS011;2665;53.112;7.358;2023-02-19T01:14:28;3.07;;;1.50;;
5285;SDS011;2665;53.112;7.358;2023-02-19T01:16:54;2.50;;;1.40;;
5285;SDS011;2665;53.112;7.358;2023-02-19T01:19:19;3.43;;;1.33;;
5285;SDS011;2665;53.112;7.358;2023-02-19T01:21:45;2.40;;;1.30;;
5285;SDS011;2665;53.112;7.358;2023-02-19T01:24:10;3.50;;;1.30;;
5285;SDS011;2665;53.112;7.358;2023-02-19T01:26:36;1.67;;;0.80;;
5285;SDS011;2665;53.112;7.358;2023-02-19T01:29:02;2.03;;;0.93;;
5285;SDS011;2665;53.112;7.358;2023-02-19T01:31:28;2.40;;;1.00;;
5285;SDS011;2665;53.112;7.358;2023-02-19T01:33:55;2.53;;;1.20;;
5285;SDS011;2665;53.112;7.358;2023-02-19T01:36:22;2.03;;;1.03;;
5285;SDS011;2665;53.112;7.358;2023-02-19T01:38:48;2.20;;;0.97;;
5285;SDS011;2665;53.112;7.358;2023-02-19T01:41:15;2.40;;;1.50;;
5285;SDS011;2665;53.112;7.358;2023-02-19T01:46:43;2.90;;;1.20;;
5285;SDS011;2665;53.112;7.358;2023-02-19T01:51:45;2.50;;;1.20;;
5285;SDS011;2665;53.112;7.358;2023-02-19T01:54:17;1.93;;;1.00;;
5285;SDS011;2665;53.112;7.358;2023-02-19T01:56:46;2.20;;;1.13;;
5285;SDS011;2665;53.112;7.358;2023-02-19T01:59:12;4.20;;;1.50;;
5285;SDS011;2665;53.112;7.358;2023-02-19T02:01:39;2.10;;;1.10;;
5285;SDS011;2665;53.112;7.358;2023-02-19T02:04:05;2.90;;;1.23;;
5285;SDS011;2665;53.112;7.358;2023-02-19T02:06:37;1.67;;;0.80;;
5285;SDS011;2665;53.112;7.358;2023-02-19T02:09:07;2.40;;;1.07;;
5285;SDS011;2665;53.112;7.358;2023-02-19T02:11:51;2.63;;;1.40;;
5285;SDS011;2665;53.112;7.358;2023-02-19T02:14:18;3.10;;;1.07;;
5285;SDS011;2665;53.112;7.358;2023-02-19T02:22:36;2.30;;;1.20;;
5285;SDS011;2665;53.112;7.358;2023-02-19T02:25:32;2.70;;;1.40;;
5285;SDS011;2665;53.112;7.358;2023-02-19T02:38:37;3.20;;;1.87;;
5285;SDS011;2665;53.112;7.358;2023-02-19T02:41:06;2.80;;;1.53;;
5285;SDS011;2665;53.112;7.358;2023-02-19T02:43:32;3.70;;;1.90;;
5285;SDS011;2665;53.112;7.358;2023-02-19T02:45:58;2.20;;;1.10;;
5285;SDS011;2665;53.112;7.358;2023-02-19T02:56:21;2.80;;;1.60;;
5285;SDS011;2665;53.112;7.358;2023-02-19T02:58:49;2.63;;;1.33;;
5285;SDS011;2665;53.112;7.358;2023-02-19T03:01:18;2.17;;;1.30;;
5285;SDS011;2665;53.112;7.358;2023-02-19T03:04:23;2.43;;;1.40;;
5285;SDS011;2665;53.112;7.358;2023-02-19T03:07:29;2.60;;;1.77;;
5285;SDS011;2665;53.112;7.358;2023-02-19T03:10:00;3.00;;;1.70;;
5285;SDS011;2665;53.112;7.358;2023-02-19T03:12:29;2.37;;;1.40;;
5285;SDS011;2665;53.112;7.358;2023-02-19T03:15:15;3.03;;;1.60;;
5285;SDS011;2665;53.112;7.358;2023-02-19T03:18:01;2.90;;;1.73;;
5285;SDS011;2665;53.112;7.358;2023-02-19T03:20:50;2.87;;;2.00;;
5285;SDS011;2665;53.112;7.358;2023-02-19T03:23:18;2.57;;;1.67;;
5285;SDS011;2665;53.112;7.358;2023-02-19T03:25:45;2.37;;;1.50;;
5285;SDS011;2665;53.112;7.358;2023-02-19T03:28:31;3.30;;;1.93;;
5285;SDS011;2665;53.112;7.358;2023-02-19T03:31:17;3.07;;;1.97;;
5285;SDS011;2665;53.112;7.358;2023-02-19T03:33:47;2.93;;;1.50;;
5285;SDS011;2665;53.112;7.358;2023-02-19T03:36:18;4.00;;;2.27;;
5285;SDS011;2665;53.112;7.358;2023-02-19T03:39:02;2.87;;;1.43;;
5285;SDS011;2665;53.112;7.358;2023-02-19T03:44:15;2.90;;;1.83;;
5285;SDS011;2665;53.112;7.358;2023-02-19T03:49:50;3.43;;;1.33;;
5285;SDS011;2665;53.112;7.358;2023-02-19T03:52:24;2.57;;;0.90;;
5285;SDS011;2665;53.112;7.358;2023-02-19T03:58:07;2.80;;;0.93;;
5285;SDS011;2665;53.112;7.358;2023-02-19T04:05:46;3.00;;;1.47;;
5285;SDS011;2665;53.112;7.358;2023-02-19T04:08:16;2.00;;;0.80;;
5285;SDS011;2665;53.112;7.358;2023-02-19T04:10:45;2.37;;;1.00;;
5285;SDS011;2665;53.112;7.358;2023-02-19T04:13:21;2.37;;;1.00;;
5285;SDS011;2665;53.112;7.358;2023-02-19T04:15:56;2.60;;;1.20;;
5285;SDS011;2665;53.112;7.358;2023-02-19T04:18:29;3.60;;;1.40;;
5285;SDS011;2665;53.112;7.358;2023-02-19T04:20:57;2.90;;;1.30;;
5285;SDS011;2665;53.112;7.358;2023-02-19T04:23:26;3.83;;;1.60;;
5285;SDS011;2665;53.112;7.358;2023-02-19T04:25:56;2.77;;;1.20;;
5285;SDS011;2665;53.112;7.358;2023-02-19T04:28:25;2.70;;;1.20;;
5285;SDS011;2665;53.112;7.358;2023-02-19T04:30:52;3.17;;;1.30;;
5285;SDS011;2665;53.112;7.358;2023-02-19T04:33:17;10.00;;;1.50;;
5285;SDS011;2665;53.112;7.358;2023-02-19T04:35:43;2.93;;;1.37;;
5285;SDS011;2665;53.112;7.358;2023-02-19T04:38:08;3.20;;;1.53;;
5285;SDS011;2665;53.112;7.358;2023-02-19T04:40:34;5.10;;;2.00;;
5285;SDS011;2665;53.112;7.358;2023-02-19T04:43:00;4.60;;;1.43;;
5285;SDS011;2665;53.112;7.358;2023-02-19T04:45:25;5.17;;;1.43;;
5285;SDS011;2665;53.112;7.358;2023-02-19T04:47:51;3.93;;;1.80;;
5285;SDS011;2665;53.112;7.358;2023-02-19T04:50:17;3.80;;;1.47;;
5285;SDS011;2665;53.112;7.358;2023-02-19T04:52:42;3.10;;;1.53;;
5285;SDS011;2665;53.112;7.358;2023-02-19T04:55:08;3.73;;;2.10;;
5285;SDS011;2665;53.112;7.358;2023-02-19T04:57:34;3.40;;;1.80;;
5285;SDS011;2665;53.112;7.358;2023-02-19T05:00:00;3.20;;;1.97;;
5285;SDS011;2665;53.112;7.358;2023-02-19T05:02:25;4.47;;;1.77;;
5285;SDS011;2665;53.112;7.358;2023-02-19T05:04:51;3.00;;;1.80;;
5285;SDS011;2665;53.112;7.358;2023-02-19T05:07:17;4.03;;;2.43;;
5285;SDS011;2665;53.112;7.358;2023-02-19T05:09:42;4.37;;;2.57;;
5285;SDS011;2665;53.112;7.358;2023-02-19T05:12:08;3.97;;;2.30;;
5285;SDS011;2665;53.112;7.358;2023-02-19T05:14:33;4.50;;;2.47;;
5285;SDS011;2665;53.112;7.358;2023-02-19T05:16:59;3.50;;;2.20;;
5285;SDS011;2665;53.112;7.358;2023-02-19T05:19:25;2.73;;;1.60;;
5285;SDS011;2665;53.112;7.358;2023-02-19T05:21:50;4.50;;;1.80;;
5285;SDS011;2665;53.112;7.358;2023-02-19T05:24:16;4.10;;;2.50;;
5285;SDS011;2665;53.112;7.358;2023-02-19T05:26:41;3.07;;;1.93;;
5285;SDS011;2665;53.112;7.358;2023-02-19T05:29:07;5.73;;;2.57;;
5285;SDS011;2665;53.112;7.358;2023-02-19T05:31:32;3.57;;;1.97;;
5285;SDS011;2665;53.112;7.358;2023-02-19T05:33:58;5.43;;;2.50;;
5285;SDS011;2665;53.112;7.358;2023-02-19T05:36:24;5.70;;;2.37;;
5285;SDS011;2665;53.112;7.358;2023-02-19T05:38:53;3.30;;;1.93;;
5285;SDS011;2665;53.112;7.358;2023-02-19T05:41:21;2.73;;;2.00;;
5285;SDS011;2665;53.112;7.358;2023-02-19T05:43:49;4.77;;;2.10;;
5285;SDS011;2665;53.112;7.358;2023-02-19T05:46:16;4.20;;;2.07;;
5285;SDS011;2665;53.112;7.358;2023-02-19T05:48:43;4.20;;;3.00;;
5285;SDS011;2665;53.112;7.358;2023-02-19T05:51:14;4.23;;;2.50;;
5285;SDS011;2665;53.112;7.358;2023-02-19T05:53:41;4.20;;;2.30;;
5285;SDS011;2665;53.112;7.358;2023-02-19T05:58:55;4.50;;;2.70;;
5285;SDS011;2665;53.112;7.358;2023-02-19T06:01:22;4.30;;;2.53;;
5285;SDS011;2665;53.112;7.358;2023-02-19T06:03:49;5.90;;;2.70;;
5285;SDS011;2665;53.112;7.358;2023-02-19T06:06:15;3.80;;;2.07;;
5285;SDS011;2665;53.112;7.358;2023-02-19T06:08:42;4.23;;;2.60;;
5285;SDS011;2665;53.112;7.358;2023-02-19T06:11:07;3.77;;;1.80;;
5285;SDS011;2665;53.112;7.358;2023-02-19T06:13:33;5.67;;;2.70;;
5285;SDS011;2665;53.112;7.358;2023-02-19T06:16:02;4.00;;;2.57;;
5285;SDS011;2665;53.112;7.358;2023-02-19T06:18:28;3.57;;;2.30;;
5285;SDS011;2665;53.112;7.358;2023-02-19T06:20:59;4.03;;;1.70;;
5285;SDS011;2665;53.112;7.358;2023-02-19T06:23:34;3.60;;;2.47;;
5285;SDS011;2665;53.112;7.358;2023-02-19T06:26:10;4.63;;;1.87;;
5285;SDS011;2665;53.112;7.358;2023-02-19T06:28:38;4.50;;;2.60;;
5285;SDS011;2665;53.112;7.358;2023-02-19T06:31:05;4.40;;;2.10;;
5285;SDS011;2665;53.112;7.358;2023-02-19T06:33:32;5.97;;;1.37;;
5285;SDS011;2665;53.112;7.358;2023-02-19T06:35:59;2.43;;;1.27;;
5285;SDS011;2665;53.112;7.358;2023-02-19T06:38:27;3.90;;;1.70;;
5285;SDS011;2665;53.112;7.358;2023-02-19T06:40:53;2.43;;;1.40;;
5285;SDS011;2665;53.112;7.358;2023-02-19T06:43:19;5.43;;;1.67;;
5285;SDS011;2665;53.112;7.358;2023-02-19T06:45:44;4.27;;;1.60;;
5285;SDS011;2665;53.112;7.358;2023-02-19T06:48:10;2.90;;;1.43;;
5285;SDS011;2665;53.112;7.358;2023-02-19T06:50:36;3.07;;;1.47;;
5285;SDS011;2665;53.112;7.358;2023-02-19T06:53:02;3.80;;;1.30;;
5285;SDS011;2665;53.112;7.358;2023-02-19T06:55:27;4.13;;;1.70;;
5285;SDS011;2665;53.112;7.358;2023-02-19T06:57:53;3.53;;;1.93;;
5285;SDS011;2665;53.112;7.358;2023-02-19T07:00:18;3.60;;;1.30;;
5285;SDS011;2665;53.112;7.358;2023-02-19T07:02:44;7.20;;;2.20;;
5285;SDS011;2665;53.112;7.358;2023-02-19T07:05:10;6.90;;;2.10;;
5285;SDS011;2665;53.112;7.358;2023-02-19T07:07:35;4.10;;;2.00;;
5285;SDS011;2665;53.112;7.358;2023-02-19T07:10:01;5.10;;;2.00;;
5285;SDS011;2665;53.112;7.358;2023-02-19T07:12:27;10.20;;;2.00;;
5285;SDS011;2665;53.112;7.358;2023-02-19T07:14:53;8.60;;;2.10;;
5285;SDS011;2665;53.112;7.358;2023-02-19T07:17:19;3.60;;;1.83;;
5285;SDS011;2665;53.112;7.358;2023-02-19T07:19:44;3.17;;;2.00;;
5285;SDS011;2665;53.112;7.358;2023-02-19T07:22:10;5.43;;;2.00;;
5285;SDS011;2665;53.112;7.358;2023-02-19T07:24:35;3.73;;;1.80;;
5285;SDS011;2665;53.112;7.358;2023-02-19T07:27:01;4.30;;;1.80;;
5285;SDS011;2665;53.112;7.358;2023-02-19T07:29:27;3.00;;;1.70;;
5285;SDS011;2665;53.112;7.358;2023-02-19T07:31:52;3.53;;;2.10;;
5285;SDS011;2665;53.112;7.358;2023-02-19T07:34:18;3.80;;;2.00;;
5285;SDS011;2665;53.112;7.358;2023-02-19T07:36:43;5.13;;;2.70;;
5285;SDS011;2665;53.112;7.358;2023-02-19T07:39:09;4.60;;;2.10;;
5285;SDS011;2665;53.112;7.358;2023-02-19T07:41:37;7.73;;;2.30;;
5285;SDS011;2665;53.112;7.358;2023-02-19T07:44:03;2.80;;;1.60;;
5285;SDS011;2665;53.112;7.358;2023-02-19T07:46:28;2.77;;;1.60;;
5285;SDS011;2665;53.112;7.358;2023-02-19T07:48:54;3.73;;;1.70;;
5285;SDS011;2665;53.112;7.358;2023-02-19T07:51:20;3.20;;;2.10;;
5285;SDS011;2665;53.112;7.358;2023-02-19T07:53:47;4.00;;;1.90;;
5285;SDS011;2665;53.112;7.358;2023-02-19T07:56:16;3.57;;;2.07;;
5285;SDS011;2665;53.112;7.358;2023-02-19T07:58:43;2.97;;;1.30;;
5285;SDS011;2665;53.112;7.358;2023-02-19T08:01:14;3.00;;;1.40;;
5285;SDS011;2665;53.112;7.358;2023-02-19T08:03:42;3.37;;;2.17;;
5285;SDS011;2665;53.112;7.358;2023-02-19T08:06:08;3.43;;;1.63;;
5285;SDS011;2665;53.112;7.358;2023-02-19T08:08:35;5.53;;;2.00;;
5285;SDS011;2665;53.112;7.358;2023-02-19T08:11:02;2.43;;;1.23;;
5285;SDS011;2665;53.112;7.358;2023-02-19T08:14:01;3.43;;;1.70;;
5285;SDS011;2665;53.112;7.358;2023-02-19T08:16:27;3.93;;;1.80;;
5285;SDS011;2665;53.112;7.358;2023-02-19T08:18:52;6.37;;;2.37;;
5285;SDS011;2665;53.112;7.358;2023-02-19T08:21:18;3.33;;;1.60;;
5285;SDS011;2665;53.112;7.358;2023-02-19T08:23:44;2.70;;;1.60;;
5285;SDS011;2665;53.112;7.358;2023-02-19T08:26:10;3.00;;;1.37;;
5285;SDS011;2665;53.112;7.358;2023-02-19T08:28:36;3.90;;;1.77;;
5285;SDS011;2665;53.112;7.358;2023-02-19T08:31:03;4.37;;;1.50;;
5285;SDS011;2665;53.112;7.358;2023-02-19T08:33:29;3.93;;;1.33;;
5285;SDS011;2665;53.112;7.358;2023-02-19T08:35:55;3.00;;;1.30;;
5285;SDS011;2665;53.112;7.358;2023-02-19T08:38:25;5.63;;;1.60;;
5285;SDS011;2665;53.112;7.358;2023-02-19T08:40:50;2.60;;;1.33;;
5285;SDS011;2665;53.112;7.358;2023-02-19T08:43:16;4.70;;;1.40;;
5285;SDS011;2665;53.112;7.358;2023-02-19T08:45:43;2.43;;;1.00;;
5285;SDS011;2665;53.112;7.358;2023-02-19T08:48:09;8.27;;;1.10;;
5285;SDS011;2665;53.112;7.358;2023-02-19T08:50:36;5.30;;;0.70;;
5285;SDS011;2665;53.112;7.358;2023-02-19T08:53:03;2.60;;;0.83;;
5285;SDS011;2665;53.112;7.358;2023-02-19T08:55:30;1.67;;;0.67;;
5285;SDS011;2665;53.112;7.358;2023-02-19T08:57:58;4.23;;;1.00;;
5285;SDS011;2665;53.112;7.358;2023-02-19T09:00:23;1.97;;;0.90;;
5285;SDS011;2665;53.112;7.358;2023-02-19T09:02:49;2.20;;;0.80;;
5285;SDS011;2665;53.112;7.358;2023-02-19T09:05:15;2.13;;;1.10;;
5285;SDS011;2665;53.112;7.358;2023-02-19T09:07:41;2.40;;;0.93;;
5285;SDS011;2665;53.112;7.358;2023-02-19T09:10:08;6.87;;;1.67;;
5285;SDS011;2665;53.112;7.358;2023-02-19T09:12:35;7.13;;;1.53;;
5285;SDS011;2665;53.112;7.358;2023-02-19T09:15:02;7.83;;;1.13;;
5285;SDS011;2665;53.112;7.358;2023-02-19T09:17:29;3.13;;;0.80;;
5285;SDS011;2665;53.112;7.358;2023-02-19T09:19:54;5.67;;;1.27;;
5285;SDS011;2665;53.112;7.358;2023-02-19T09:22:20;2.00;;;0.93;;
5285;SDS011;2665;53.112;7.358;2023-02-19T09:24:45;1.80;;;0.80;;
5285;SDS011;2665;53.112;7.358;2023-02-19T09:27:15;3.90;;;0.90;;
5285;SDS011;2665;53.112;7.358;2023-02-19T09:29:42;1.60;;;0.50;;
5285;SDS011;2665;53.112;7.358;2023-02-19T09:32:08;2.40;;;1.03;;
5285;SDS011;2665;53.112;7.358;2023-02-19T09:34:33;2.13;;;0.77;;
5285;SDS011;2665;53.112;7.358;2023-02-19T09:36:59;2.10;;;0.80;;
5285;SDS011;2665;53.112;7.358;2023-02-19T09:39:25;2.00;;;0.60;;
5285;SDS011;2665;53.112;7.358;2023-02-19T09:41:51;2.27;;;0.50;;
5285;SDS011;2665;53.112;7.358;2023-02-19T09:44:24;6.23;;;0.97;;
5285;SDS011;2665;53.112;7.358;2023-02-19T09:46:57;3.90;;;1.17;;
5285;SDS011;2665;53.112;7.358;2023-02-19T09:54:34;2.27;;;0.80;;
5285;SDS011;2665;53.112;7.358;2023-02-19T09:57:02;1.60;;;0.50;;
5285;SDS011;2665;53.112;7.358;2023-02-19T09:59:33;2.43;;;0.73;;
5285;SDS011;2665;53.112;7.358;2023-02-19T10:02:18;3.93;;;1.10;;
5285;SDS011;2665;53.112;7.358;2023-02-19T10:04:47;2.63;;;0.60;;
5285;SDS011;2665;53.112;7.358;2023-02-19T10:07:16;2.07;;;0.60;;
5285;SDS011;2665;53.112;7.358;2023-02-19T10:09:44;2.57;;;0.70;;
5285;SDS011;2665;53.112;7.358;2023-02-19T10:12:17;1.87;;;0.60;;
5285;SDS011;2665;53.112;7.358;2023-02-19T10:14:48;2.37;;;0.70;;
5285;SDS011;2665;53.112;7.358;2023-02-19T10:17:21;2.37;;;0.70;;
5285;SDS011;2665;53.112;7.358;2023-02-19T10:19:53;8.17;;;0.87;;
5285;SDS011;2665;53.112;7.358;2023-02-19T10:22:20;2.67;;;0.73;;
5285;SDS011;2665;53.112;7.358;2023-02-19T10:24:48;2.23;;;0.70;;
5285;SDS011;2665;53.112;7.358;2023-02-19T10:27:16;2.43;;;0.60;;
5285;SDS011;2665;53.112;7.358;2023-02-19T10:29:43;2.57;;;0.70;;
5285;SDS011;2665;53.112;7.358;2023-02-19T10:32:31;3.43;;;0.70;;
5285;SDS011;2665;53.112;7.358;2023-02-19T10:35:06;2.47;;;0.67;;
5285;SDS011;2665;53.112;7.358;2023-02-19T10:37:32;3.63;;;0.60;;
5285;SDS011;2665;53.112;7.358;2023-02-19T10:39:59;4.50;;;0.90;;
5285;SDS011;2665;53.112;7.358;2023-02-19T10:42:25;4.97;;;0.90;;
5285;SDS011;2665;53.112;7.358;2023-02-19T10:44:54;2.30;;;0.50;;
5285;SDS011;2665;53.112;7.358;2023-02-19T10:47:26;5.70;;;1.63;;
5285;SDS011;2665;53.112;7.358;2023-02-19T10:49:56;2.20;;;0.80;;
5285;SDS011;2665;53.112;7.358;2023-02-19T10:52:25;3.03;;;0.60;;
5285;SDS011;2665;53.112;7.358;2023-02-19T10:54:57;2.43;;;0.63;;
5285;SDS011;2665;53.112;7.358;2023-02-19T10:57:48;3.50;;;0.50;;
5285;SDS011;2665;53.112;7.358;2023-02-19T11:02:40;2.13;;;0.63;;
5285;SDS011;2665;53.112;7.358;2023-02-19T11:07:33;1.60;;;0.50;;
5285;SDS011;2665;53.112;7.358;2023-02-19T11:10:00;2.80;;;0.60;;
5285;SDS011;2665;53.112;7.358;2023-02-19T11:12:29;1.90;;;0.60;;
5285;SDS011;2665;53.112;7.358;2023-02-19T11:14:59;5.00;;;0.80;;
5285;SDS011;2665;53.112;7.358;2023-02-19T11:17:43;2.90;;;0.70;;
5285;SDS011;2665;53.112;7.358;2023-02-19T11:20:13;1.60;;;0.50;;
5285;SDS011;2665;53.112;7.358;2023-02-19T11:22:41;1.60;;;0.50;;
5285;SDS011;2665;53.112;7.358;2023-02-19T11:25:17;3.10;;;0.73;;
5285;SDS011;2665;53.112;7.358;2023-02-19T11:30:43;3.70;;;1.07;;
5285;SDS011;2665;53.112;7.358;2023-02-19T11:35:45;1.90;;;0.60;;
5285;SDS011;2665;53.112;7.358;2023-02-19T11:38:13;2.20;;;0.60;;
5285;SDS011;2665;53.112;7.358;2023-02-19T11:40:44;1.80;;;0.53;;
5285;SDS011;2665;53.112;7.358;2023-02-19T11:43:46;2.63;;;0.60;;
5285;SDS011;2665;53.112;7.358;2023-02-19T11:49:35;3.50;;;0.70;;
5285;SDS011;2665;53.112;7.358;2023-02-19T11:52:12;2.97;;;1.00;;
5285;SDS011;2665;53.112;7.358;2023-02-19T12:00:47;3.60;;;0.80;;
5285;SDS011;2665;53.112;7.358;2023-02-19T12:22:15;3.07;;;0.70;;
5285;SDS011;2665;53.112;7.358;2023-02-19T12:38:44;2.10;;;0.73;;
5285;SDS011;2665;53.112;7.358;2023-02-19T12:41:19;1.70;;;0.50;;
5285;SDS011;2665;53.112;7.358;2023-02-19T12:44:21;2.20;;;0.60;;
5285;SDS011;2665;53.112;7.358;2023-02-19T12:47:07;3.80;;;0.70;;
5285;SDS011;2665;53.112;7.358;2023-02-19T12:49:42;2.60;;;0.50;;
5285;SDS011;2665;53.112;7.358;2023-02-19T12:52:18;2.33;;;1.13;;
5285;SDS011;2665;53.112;7.358;2023-02-19T12:54:50;7.17;;;0.70;;
5285;SDS011;2665;53.112;7.358;2023-02-19T12:57:22;5.93;;;0.80;;
5285;SDS011;2665;53.112;7.358;2023-02-19T12:59:58;2.30;;;0.70;;
5285;SDS011;2665;53.112;7.358;2023-02-19T13:02:49;2.80;;;0.70;;
5285;SDS011;2665;53.112;7.358;2023-02-19T13:11:03;3.50;;;0.80;;
5285;SDS011;2665;53.112;7.358;2023-02-19T13:13:35;3.43;;;0.90;;
5285;SDS011;2665;53.112;7.358;2023-02-19T13:16:11;3.30;;;0.67;;
5285;SDS011;2665;53.112;7.358;2023-02-19T13:21:14;3.50;;;0.73;;
5285;SDS011;2665;53.112;7.358;2023-02-19T13:24:02;4.87;;;0.80;;
5285;SDS011;2665;53.112;7.358;2023-02-19T13:26:53;2.30;;;0.67;;
5285;SDS011;2665;53.112;7.358;2023-02-19T13:36:05;3.50;;;0.80;;
5285;SDS011;2665;53.112;7.358;2023-02-19T13:38:39;2.20;;;0.60;;
5285;SDS011;2665;53.112;7.358;2023-02-19T13:44:20;2.10;;;0.70;;
5285;SDS011;2665;53.112;7.358;2023-02-19T13:46:50;3.50;;;0.60;;
5285;SDS011;2665;53.112;7.358;2023-02-19T13:51:49;6.80;;;1.13;;
5285;SDS011;2665;53.112;7.358;2023-02-19T13:54:20;3.30;;;0.80;;
5285;SDS011;2665;53.112;7.358;2023-02-19T13:56:53;4.10;;;0.80;;
5285;SDS011;2665;53.112;7.358;2023-02-19T13:59:51;1.80;;;0.70;;
5285;SDS011;2665;53.112;7.358;2023-02-19T14:02:31;3.20;;;0.70;;
5285;SDS011;2665;53.112;7.358;2023-02-19T14:05:08;1.80;;;0.63;;
5285;SDS011;2665;53.112;7.358;2023-02-19T14:07:36;1.60;;;0.70;;
5285;SDS011;2665;53.112;7.358;2023-02-19T14:13:07;3.33;;;0.90;;
5285;SDS011;2665;53.112;7.358;2023-02-19T14:15:36;2.47;;;1.03;;
5285;SDS011;2665;53.112;7.358;2023-02-19T14:21:22;3.50;;;0.90;;
5285;SDS011;2665;53.112;7.358;2023-02-19T14:23:52;2.27;;;0.90;;
5285;SDS011;2665;53.112;7.358;2023-02-19T14:26:21;3.03;;;0.70;;
5285;SDS011;2665;53.112;7.358;2023-02-19T14:28:49;5.53;;;1.17;;
5285;SDS011;2665;53.112;7.358;2023-02-19T14:31:21;2.30;;;0.90;;
5285;SDS011;2665;53.112;7.358;2023-02-19T14:34:03;4.13;;;1.10;;
5285;SDS011;2665;53.112;7.358;2023-02-19T14:36:49;5.23;;;0.63;;
5285;SDS011;2665;53.112;7.358;2023-02-19T14:39:21;1.97;;;0.70;;
5285;SDS011;2665;53.112;7.358;2023-02-19T14:41:52;3.57;;;0.73;;
5285;SDS011;2665;53.112;7.358;2023-02-19T14:44:28;6.30;;;0.60;;
5285;SDS011;2665;53.112;7.358;2023-02-19T14:47:05;1.87;;;0.70;;
5285;SDS011;2665;53.112;7.358;2023-02-19T14:49:41;1.80;;;0.60;;
5285;SDS011;2665;53.112;7.358;2023-02-19T14:52:17;3.73;;;0.90;;
5285;SDS011;2665;53.112;7.358;2023-02-19T14:54:50;2.93;;;0.70;;
5285;SDS011;2665;53.112;7.358;2023-02-19T14:57:26;2.40;;;0.70;;
5285;SDS011;2665;53.112;7.358;2023-02-19T15:02:24;2.43;;;0.70;;
5285;SDS011;2665;53.112;7.358;2023-02-19T15:04:54;3.83;;;0.70;;
5285;SDS011;2665;53.112;7.358;2023-02-19T15:07:22;2.73;;;0.60;;
5285;SDS011;2665;53.112;7.358;2023-02-19T15:09:50;3.10;;;1.00;;
5285;SDS011;2665;53.112;7.358;2023-02-19T15:12:25;3.40;;;1.00;;
5285;SDS011;2665;53.112;7.358;2023-02-19T15:14:58;2.67;;;0.50;;
5285;SDS011;2665;53.112;7.358;2023-02-19T15:17:27;2.93;;;0.70;;
5285;SDS011;2665;53.112;7.358;2023-02-19T15:19:54;2.43;;;0.70;;
5285;SDS011;2665;53.112;7.358;2023-02-19T15:22:23;1.90;;;0.60;;
5285;SDS011;2665;53.112;7.358;2023-02-19T15:24:49;1.90;;;0.50;;
5285;SDS011;2665;53.112;7.358;2023-02-19T15:27:16;2.00;;;0.70;;
5285;SDS011;2665;53.112;7.358;2023-02-19T15:29:44;3.00;;;0.50;;
5285;SDS011;2665;53.112;7.358;2023-02-19T15:32:18;2.17;;;0.60;;
5285;SDS011;2665;53.112;7.358;2023-02-19T15:34:53;4.07;;;0.70;;
5285;SDS011;2665;53.112;7.358;2023-02-19T15:37:20;2.13;;;1.00;;
5285;SDS011;2665;53.112;7.358;2023-02-19T15:39:46;1.63;;;0.57;;
5285;SDS011;2665;53.112;7.358;2023-02-19T15:42:20;4.70;;;0.60;;
5285;SDS011;2665;53.112;7.358;2023-02-19T15:47:22;1.97;;;0.73;;
5285;SDS011;2665;53.112;7.358;2023-02-19T15:50:24;3.50;;;0.83;;
5285;SDS011;2665;53.112;7.358;2023-02-19T15:55:21;1.90;;;0.60;;
5285;SDS011;2665;53.112;7.358;2023-02-19T15:57:51;2.37;;;0.60;;
5285;SDS011;2665;53.112;7.358;2023-02-19T16:00:21;2.27;;;0.57;;
5285;SDS011;2665;53.112;7.358;2023-02-19T16:02:49;2.07;;;0.60;;
5285;SDS011;2665;53.112;7.358;2023-02-19T16:05:22;4.50;;;0.70;;
5285;SDS011;2665;53.112;7.358;2023-02-19T16:08:05;1.80;;;0.60;;
5285;SDS011;2665;53.112;7.358;2023-02-19T16:10:31;3.30;;;0.80;;
5285;SDS011;2665;53.112;7.358;2023-02-19T16:12:58;1.60;;;0.50;;
5285;SDS011;2665;53.112;7.358;2023-02-19T16:15:25;2.00;;;0.60;;
5285;SDS011;2665;53.112;7.358;2023-02-19T16:17:52;5.57;;;0.90;;
5285;SDS011;2665;53.112;7.358;2023-02-19T16:22:47;2.93;;;0.73;;
5285;SDS011;2665;53.112;7.358;2023-02-19T16:25:23;3.87;;;0.63;;
5285;SDS011;2665;53.112;7.358;2023-02-19T16:27:50;3.00;;;0.73;;
5285;SDS011;2665;53.112;7.358;2023-02-19T16:33:17;1.70;;;0.70;;
5285;SDS011;2665;53.112;7.358;2023-02-19T16:35:36;4.97;;;0.90;;
5285;SDS011;2665;53.112;7.358;2023-02-19T16:38:10;3.30;;;0.93;;
5285;SDS011;2665;53.112;7.358;2023-02-19T16:45:39;3.30;;;1.20;;
5285;SDS011;2665;53.112;7.358;2023-02-19T16:48:06;2.80;;;0.70;;
5285;SDS011;2665;53.112;7.358;2023-02-19T16:50:32;3.60;;;1.20;;
5285;SDS011;2665;53.112;7.358;2023-02-19T16:52:59;3.20;;;0.97;;
5285;SDS011;2665;53.112;7.358;2023-02-19T16:55:26;4.10;;;1.03;;
5285;SDS011;2665;53.112;7.358;2023-02-19T16:57:52;4.00;;;1.00;;
5285;SDS011;2665;53.112;7.358;2023-02-19T17:02:49;3.60;;;0.80;;
5285;SDS011;2665;53.112;7.358;2023-02-19T17:05:15;4.77;;;1.07;;
5285;SDS011;2665;53.112;7.358;2023-02-19T17:07:42;2.77;;;0.97;;
5285;SDS011;2665;53.112;7.358;2023-02-19T17:10:13;2.57;;;0.80;;
5285;SDS011;2665;53.112;7.358;2023-02-19T17:12:40;2.27;;;0.97;;
5285;SDS011;2665;53.112;7.358;2023-02-19T17:15:06;3.23;;;1.00;;
5285;SDS011;2665;53.112;7.358;2023-02-19T17:17:32;3.10;;;0.87;;
5285;SDS011;2665;53.112;7.358;2023-02-19T17:19:58;3.67;;;0.93;;
5285;SDS011;2665;53.112;7.358;2023-02-19T17:25:19;3.80;;;1.10;;
5285;SDS011;2665;53.112;7.358;2023-02-19T17:27:45;2.97;;;0.73;;
5285;SDS011;2665;53.112;7.358;2023-02-19T17:30:12;3.57;;;0.93;;
5285;SDS011;2665;53.112;7.358;2023-02-19T17:32:40;7.33;;;1.07;;
5285;SDS011;2665;53.112;7.358;2023-02-19T17:35:06;2.83;;;0.97;;
5285;SDS011;2665;53.112;7.358;2023-02-19T17:37:32;8.87;;;0.93;;
5285;SDS011;2665;53.112;7.358;2023-02-19T17:39:58;3.50;;;0.87;;
5285;SDS011;2665;53.112;7.358;2023-02-19T17:42:24;5.00;;;0.90;;
5285;SDS011;2665;53.112;7.358;2023-02-19T17:44:50;1.80;;;0.70;;
5285;SDS011;2665;53.112;7.358;2023-02-19T17:47:18;3.90;;;0.90;;
5285;SDS011;2665;53.112;7.358;2023-02-19T17:49:44;2.00;;;0.90;;
5285;SDS011;2665;53.112;7.358;2023-02-19T17:52:11;1.80;;;0.73;;
5285;SDS011;2665;53.112;7.358;2023-02-19T17:54:41;2.80;;;0.90;;
5285;SDS011;2665;53.112;7.358;2023-02-19T17:57:08;4.70;;;1.03;;
5285;SDS011;2665;53.112;7.358;2023-02-19T17:59:34;1.77;;;0.63;;
5285;SDS011;2665;53.112;7.358;2023-02-19T18:02:00;5.10;;;0.93;;
5285;SDS011;2665;53.112;7.358;2023-02-19T18:04:27;1.90;;;0.70;;